createdAt,value
2022-08-23T00:02:39.911Z,27.33
2022-08-23T00:07:46.699Z,28.52
2022-08-23T00:12:49.663Z,27.52
2022-08-23T00:17:52.906Z,23.17
2022-08-23T00:22:57.692Z,27.05
2022-08-23T00:28:00.682Z,28.17
2022-08-23T00:33:07.221Z,29.10
2022-08-23T00:38:32.469Z,28.50
2022-08-23T00:43:57.621Z,24.92
2022-08-23T00:49:01.857Z,33.85
2022-08-23T00:54:09.772Z,32.47
2022-08-23T00:59:15.235Z,28.23
2022-08-23T01:04:18.740Z,24.98
2022-08-23T01:09:23.560Z,17.33
2022-08-23T01:14:32.514Z,15.93
2022-08-23T01:19:37.890Z,18.05
2022-08-23T01:25:06.210Z,19.27
2022-08-23T01:30:11.266Z,18.88
2022-08-23T01:35:14.858Z,15.52
2022-08-23T01:40:19.397Z,14.98
2022-08-23T01:45:22.677Z,18.52
2022-08-23T01:50:26.253Z,19.13
2022-08-23T01:55:30.984Z,13.50
2022-08-23T02:00:37.028Z,11.63
2022-08-23T02:05:40.644Z,16.33
2022-08-23T02:10:46.037Z,11.85
2022-08-23T02:15:51.604Z,12.77
2022-08-23T02:20:54.768Z,16.33
2022-08-23T02:25:59.449Z,13.25
2022-08-23T02:31:05.343Z,14.98
2022-08-23T02:36:08.977Z,20.15
2022-08-23T02:41:13.393Z,18.40
2022-08-23T02:46:16.307Z,22.02
2022-08-23T02:51:19.405Z,23.67
2022-08-23T02:56:23.860Z,27.13
2022-08-23T03:01:29.058Z,25.58
2022-08-23T03:06:32.437Z,28.08
2022-08-23T03:11:37.189Z,24.80
2022-08-23T03:16:40.666Z,23.00
2022-08-23T03:21:43.648Z,24.58
2022-08-23T03:26:49.163Z,24.20
2022-08-23T03:31:53.905Z,25.98
2022-08-23T03:36:56.899Z,27.75
2022-08-23T03:42:01.431Z,20.92
2022-08-23T03:47:06.208Z,27.85
2022-08-23T03:52:09.048Z,26.15
2022-08-23T03:57:13.674Z,29.08
2022-08-23T04:02:17.326Z,20.17
2022-08-23T04:07:21.137Z,25.65
2022-08-23T04:12:25.971Z,23.35
2022-08-23T04:17:32.435Z,19.38
2022-08-23T04:22:35.594Z,21.52
2022-08-23T04:27:39.869Z,25.55
2022-08-23T04:32:43.184Z,21.55
2022-08-23T04:37:49.024Z,20.23
2022-08-23T04:42:53.424Z,24.42
2022-08-23T04:47:56.512Z,21.83
2022-08-23T04:53:00.062Z,24.15
2022-08-23T04:58:04.646Z,19.50
2022-08-23T05:03:07.788Z,22.88
2022-08-23T05:08:10.737Z,17.98
2022-08-23T05:13:15.214Z,14.38
2022-08-23T05:18:18.711Z,11.95
2022-08-23T05:23:23.571Z,15.35
2022-08-23T05:28:37.650Z,13.90
2022-08-23T05:33:41.741Z,24.48
2022-08-23T05:38:47.414Z,18.63
2022-08-23T05:43:51.758Z,14.23
2022-08-23T05:48:54.999Z,17.15
2022-08-23T05:54:00.418Z,12.77
2022-08-23T05:59:12.362Z,15.38
2022-08-23T06:04:15.996Z,11.32
2022-08-23T06:09:19.694Z,11.38
2022-08-23T06:14:24.443Z,11.80
2022-08-23T06:19:27.594Z,11.27
2022-08-23T06:24:30.809Z,13.35
2022-08-23T06:29:35.426Z,12.65
2022-08-23T06:34:39.113Z,14.13
2022-08-23T06:39:43.809Z,11.48
2022-08-23T06:44:48.456Z,14.18
2022-08-23T06:49:57.789Z,16.00
2022-08-23T06:55:02.450Z,12.32
2022-08-23T07:00:10.108Z,11.27
2022-08-23T07:05:13.065Z,15.40
2022-08-23T07:10:16.052Z,10.35
2022-08-23T07:15:20.952Z,12.98
2022-08-23T07:20:23.857Z,12.90
2022-08-23T07:25:27.648Z,15.27
2022-08-23T07:30:32.155Z,15.70
2022-08-23T07:35:40.097Z,14.23
2022-08-23T07:40:44.117Z,13.57
2022-08-23T07:45:58.374Z,16.65
2022-08-23T07:51:03.049Z,16.63
2022-08-23T07:56:07.093Z,16.42
2022-08-23T08:01:16.382Z,17.88
2022-08-23T08:06:23.825Z,14.07
2022-08-23T08:11:34.259Z,16.30
2022-08-23T08:16:42.581Z,18.50
2022-08-23T08:21:47.314Z,14.95
2022-08-23T08:26:50.265Z,14.25
2022-08-23T08:31:54.712Z,15.30
2022-08-23T08:36:58.756Z,16.75
2022-08-23T08:42:23.390Z,20.88
2022-08-23T08:47:40.767Z,13.35
2022-08-23T08:52:48.098Z,20.50
2022-08-23T08:57:52.463Z,18.42
2022-08-23T09:02:59.798Z,15.57
2022-08-23T09:08:14.331Z,18.38
2022-08-23T09:13:46.353Z,18.92
2022-08-23T09:18:53.351Z,20.83
2022-08-23T09:24:00.879Z,13.93
2022-08-23T09:29:13.286Z,19.65
2022-08-23T09:34:21.097Z,18.40
2022-08-23T09:39:30.737Z,17.95
2022-08-23T09:44:39.937Z,21.80
2022-08-23T09:49:48.578Z,23.40
2022-08-23T09:54:56.764Z,21.67
2022-08-23T10:00:02.224Z,20.63
2022-08-23T10:05:18.625Z,24.73
2022-08-23T10:10:28.221Z,21.92
2022-08-23T10:15:52.351Z,24.58
2022-08-23T10:21:03.298Z,29.63
2022-08-23T10:31:20.852Z,23.52
2022-08-23T10:36:34.050Z,21.80
2022-08-23T10:41:53.473Z,26.05
2022-08-23T10:47:10.559Z,28.23
2022-08-23T10:52:20.994Z,32.50
2022-08-23T10:57:29.127Z,24.80
2022-08-23T11:02:41.767Z,23.00
2022-08-23T11:07:57.733Z,31.77
2022-08-23T11:13:06.551Z,27.00
2022-08-23T11:18:10.989Z,32.20
2022-08-23T11:23:18.397Z,33.90
2022-08-23T11:28:39.932Z,28.38
2022-08-23T11:33:47.108Z,28.67
2022-08-23T11:39:10.981Z,31.15
2022-08-23T11:44:27.968Z,36.65
2022-08-23T11:49:58.267Z,32.60
2022-08-23T11:55:26.366Z,42.97
2022-08-23T12:01:03.180Z,44.20
2022-08-23T12:06:39.258Z,39.60
2022-08-23T12:12:24.435Z,40.47
2022-08-23T12:18:04.784Z,41.28
2022-08-23T12:23:18.037Z,42.75
2022-08-23T12:28:33.968Z,41.67
2022-08-23T12:33:49.978Z,59.63
2022-08-23T12:39:02.811Z,47.75
2022-08-23T12:44:09.918Z,49.45
2022-08-23T12:49:25.526Z,42.15
2022-08-23T12:54:38.682Z,47.05
2022-08-23T12:59:49.888Z,65.43
2022-08-23T13:04:54.524Z,50.10
2022-08-23T13:09:57.909Z,63.55
2022-08-23T13:15:05.001Z,53.45
2022-08-23T13:20:21.662Z,56.22
2022-08-23T13:25:29.527Z,67.63
2022-08-23T13:30:37.769Z,53.05
2022-08-23T13:35:44.450Z,57.53
2022-08-23T13:40:57.424Z,55.80
2022-08-23T13:46:12.767Z,65.35
2022-08-23T13:51:20.949Z,62.03
2022-08-23T13:56:24.786Z,65.95
2022-08-23T14:01:30.019Z,64.38
2022-08-23T14:06:33.405Z,63.17
2022-08-23T14:11:37.362Z,68.93
2022-08-23T14:16:42.067Z,62.90
2022-08-23T14:21:46.954Z,69.72
2022-08-23T14:26:52.244Z,61.60
2022-08-23T14:31:59.362Z,58.47
2022-08-23T14:42:25.778Z,79.15
2022-08-23T14:47:30.355Z,75.05
2022-08-23T14:52:33.723Z,68.63
2022-08-23T14:57:37.177Z,70.78
2022-08-23T15:02:43.252Z,69.45
2022-08-23T15:07:46.715Z,66.85
2022-08-23T15:13:01.915Z,67.65
2022-08-23T15:18:16.014Z,67.85
2022-08-23T15:23:19.080Z,62.80
2022-08-23T15:28:23.693Z,68.57
2022-08-23T15:33:30.806Z,70.80
2022-08-23T15:38:36.990Z,62.10
2022-08-23T15:43:40.545Z,60.78
2022-08-23T15:48:49.128Z,63.70
2022-08-23T15:53:52.365Z,57.83
2022-08-23T15:58:56.008Z,75.07
2022-08-23T16:04:02.058Z,61.97
2022-08-23T16:09:07.860Z,51.88
2022-08-23T16:14:12.208Z,67.78
2022-08-23T16:19:17.011Z,60.90
2022-08-23T16:24:20.226Z,68.18
2022-08-23T16:29:32.341Z,64.60
2022-08-23T16:34:36.877Z,65.07
2022-08-23T16:39:40.992Z,79.72
2022-08-23T16:44:44.430Z,48.53
2022-08-23T16:49:48.936Z,56.88
2022-08-23T16:54:52.145Z,52.97
2022-08-23T16:59:55.952Z,36.53
2022-08-23T17:05:00.882Z,17.75
2022-08-23T17:10:04.604Z,20.23
2022-08-23T17:15:09.351Z,23.77
2022-08-23T17:20:14.965Z,14.32
2022-08-23T17:25:18.153Z,15.60
2022-08-23T17:30:23.499Z,15.23
2022-08-23T17:35:33.898Z,17.67
2022-08-23T17:40:40.206Z,23.60
2022-08-23T17:45:47.045Z,17.90
2022-08-23T17:50:51.936Z,19.83
2022-08-23T17:55:54.681Z,19.88
2022-08-23T18:00:57.886Z,13.15
2022-08-23T18:06:02.947Z,14.45
2022-08-23T18:11:20.923Z,15.38
2022-08-23T18:16:31.855Z,18.77
2022-08-23T18:21:40.532Z,14.38
2022-08-23T18:27:03.455Z,14.13
2022-08-23T18:32:08.717Z,14.75
2022-08-23T18:37:21.845Z,22.77
2022-08-23T18:42:25.417Z,18.95
2022-08-23T18:47:28.533Z,15.73
2022-08-23T18:52:33.223Z,13.27
2022-08-23T18:57:36.227Z,18.38
2022-08-23T19:02:39.608Z,18.83
2022-08-23T19:07:44.506Z,13.15
2022-08-23T19:12:51.854Z,16.88
2022-08-23T19:17:58.331Z,22.85
2022-08-23T19:23:02.856Z,15.48
2022-08-23T19:28:06.122Z,11.63
2022-08-23T19:33:08.949Z,17.27
2022-08-23T19:38:14.505Z,15.50
2022-08-23T19:43:18.350Z,16.77
2022-08-23T19:48:21.584Z,16.15
2022-08-23T19:53:26.618Z,14.95
2022-08-23T19:58:29.433Z,15.02
2022-08-23T20:03:32.516Z,16.85
2022-08-23T20:08:36.762Z,14.63
2022-08-23T20:13:39.905Z,16.50
2022-08-23T20:18:43.667Z,18.60
2022-08-23T20:24:02.232Z,12.25
2022-08-23T20:29:06.100Z,11.82
2022-08-23T20:34:10.479Z,12.38
2022-08-23T20:39:21.869Z,14.23
2022-08-23T20:44:26.923Z,10.38
2022-08-23T20:49:29.833Z,15.65
2022-08-23T20:54:39.049Z,13.65
2022-08-23T20:59:44.695Z,13.05
2022-08-23T21:04:48.531Z,13.05
2022-08-23T21:09:52.854Z,13.98
2022-08-23T21:14:56.988Z,14.50
2022-08-23T21:20:00.274Z,16.25
2022-08-23T21:25:05.510Z,13.35
2022-08-23T21:30:10.281Z,14.32
2022-08-23T21:35:14.071Z,16.48
2022-08-23T21:40:18.702Z,13.10
2022-08-23T21:45:22.004Z,15.57
2022-08-23T21:50:28.456Z,11.93
2022-08-23T21:55:36.184Z,17.83
2022-08-23T22:00:41.437Z,13.75
2022-08-23T22:05:45.633Z,13.82
2022-08-23T22:10:57.445Z,19.17
2022-08-23T22:16:04.578Z,15.40
2022-08-23T22:21:07.614Z,11.95
2022-08-23T22:26:14.029Z,15.13
2022-08-23T22:31:17.185Z,15.43
2022-08-23T22:36:22.830Z,19.38
2022-08-23T22:41:29.743Z,10.88
2022-08-23T22:46:34.572Z,15.27
2022-08-23T22:51:37.673Z,18.38
2022-08-23T22:56:44.165Z,18.70
2022-08-23T23:01:49.757Z,18.23
2022-08-23T23:06:53.722Z,13.57
2022-08-23T23:11:58.182Z,16.67
2022-08-23T23:17:01.168Z,16.95
2022-08-23T23:22:06.113Z,13.40
2022-08-23T23:27:10.563Z,14.93
2022-08-23T23:32:13.430Z,18.50
2022-08-23T23:37:16.258Z,14.50
2022-08-23T23:42:20.571Z,17.58
2022-08-23T23:47:23.561Z,16.95
2022-08-23T23:52:26.602Z,14.85
2022-08-23T23:57:33.441Z,15.73
